sensor_id;sensor_type;location;lat;lon;timestamp;P1;durP1;ratioP1;P2;durP2;ratioP2
47772;SDS011;33534;51.028;13.716;2023-02-19T00:01:41;4.93;;;3.22;;
47772;SDS011;33534;51.028;13.716;2023-02-19T00:06:36;5.45;;;3.67;;
47772;SDS011;33534;51.028;13.716;2023-02-19T00:09:02;8.48;;;3.33;;
47772;SDS011;33534;51.028;13.716;2023-02-19T00:11:30;5.47;;;3.05;;
47772;SDS011;33534;51.028;13.716;2023-02-19T00:13:56;5.10;;;2.85;;
47772;SDS011;33534;51.028;13.716;2023-02-19T00:16:26;4.95;;;3.13;;
47772;SDS011;33534;51.028;13.716;2023-02-19T00:18:53;6.63;;;3.10;;
47772;SDS011;33534;51.028;13.716;2023-02-19T00:21:20;4.68;;;2.60;;
47772;SDS011;33534;51.028;13.716;2023-02-19T00:23:49;5.63;;;2.83;;
47772;SDS011;33534;51.028;13.716;2023-02-19T00:26:15;3.67;;;2.47;;
47772;SDS011;33534;51.028;13.716;2023-02-19T00:28:42;6.30;;;2.53;;
47772;SDS011;33534;51.028;13.716;2023-02-19T00:33:37;5.80;;;3.42;;
47772;SDS011;33534;51.028;13.716;2023-02-19T00:36:03;4.25;;;2.80;;
47772;SDS011;33534;51.028;13.716;2023-02-19T00:38:30;5.53;;;3.22;;
47772;SDS011;33534;51.028;13.716;2023-02-19T00:40:59;5.38;;;2.90;;
47772;SDS011;33534;51.028;13.716;2023-02-19T00:43:25;4.97;;;3.17;;
47772;SDS011;33534;51.028;13.716;2023-02-19T00:45:51;4.45;;;3.03;;
47772;SDS011;33534;51.028;13.716;2023-02-19T00:48:17;5.25;;;3.22;;
47772;SDS011;33534;51.028;13.716;2023-02-19T00:50:43;5.32;;;3.08;;
47772;SDS011;33534;51.028;13.716;2023-02-19T00:53:09;10.48;;;3.65;;
47772;SDS011;33534;51.028;13.716;2023-02-19T00:55:35;5.07;;;2.92;;
47772;SDS011;33534;51.028;13.716;2023-02-19T00:58:01;4.57;;;2.85;;
47772;SDS011;33534;51.028;13.716;2023-02-19T01:00:27;5.07;;;3.25;;
47772;SDS011;33534;51.028;13.716;2023-02-19T01:02:53;11.68;;;3.72;;
47772;SDS011;33534;51.028;13.716;2023-02-19T01:05:19;4.68;;;2.85;;
47772;SDS011;33534;51.028;13.716;2023-02-19T01:07:45;5.55;;;2.92;;
47772;SDS011;33534;51.028;13.716;2023-02-19T01:10:11;4.75;;;2.80;;
47772;SDS011;33534;51.028;13.716;2023-02-19T01:12:37;6.75;;;3.65;;
47772;SDS011;33534;51.028;13.716;2023-02-19T01:15:03;6.35;;;2.75;;
47772;SDS011;33534;51.028;13.716;2023-02-19T01:17:29;5.07;;;2.42;;
47772;SDS011;33534;51.028;13.716;2023-02-19T01:19:55;5.80;;;2.92;;
47772;SDS011;33534;51.028;13.716;2023-02-19T01:22:21;5.07;;;3.08;;
47772;SDS011;33534;51.028;13.716;2023-02-19T01:24:47;6.18;;;2.97;;
47772;SDS011;33534;51.028;13.716;2023-02-19T01:27:13;5.13;;;2.85;;
47772;SDS011;33534;51.028;13.716;2023-02-19T01:29:39;4.05;;;3.00;;
47772;SDS011;33534;51.028;13.716;2023-02-19T01:32:07;3.50;;;2.70;;
47772;SDS011;33534;51.028;13.716;2023-02-19T01:34:33;5.13;;;3.13;;
47772;SDS011;33534;51.028;13.716;2023-02-19T01:36:59;4.53;;;3.10;;
47772;SDS011;33534;51.028;13.716;2023-02-19T01:39:25;4.70;;;2.97;;
47772;SDS011;33534;51.028;13.716;2023-02-19T01:41:51;5.65;;;3.58;;
47772;SDS011;33534;51.028;13.716;2023-02-19T01:46:43;5.63;;;3.95;;
47772;SDS011;33534;51.028;13.716;2023-02-19T01:49:28;6.53;;;3.83;;
47772;SDS011;33534;51.028;13.716;2023-02-19T01:54:21;4.97;;;3.97;;
47772;SDS011;33534;51.028;13.716;2023-02-19T01:56:47;7.80;;;4.15;;
47772;SDS011;33534;51.028;13.716;2023-02-19T01:59:15;5.60;;;3.47;;
47772;SDS011;33534;51.028;13.716;2023-02-19T02:01:41;7.35;;;3.63;;
47772;SDS011;33534;51.028;13.716;2023-02-19T02:04:07;5.13;;;3.55;;
47772;SDS011;33534;51.028;13.716;2023-02-19T02:06:42;7.30;;;3.53;;
47772;SDS011;33534;51.028;13.716;2023-02-19T02:09:09;5.63;;;3.63;;
47772;SDS011;33534;51.028;13.716;2023-02-19T02:11:54;5.78;;;2.90;;
47772;SDS011;33534;51.028;13.716;2023-02-19T02:14:21;6.00;;;3.55;;
47772;SDS011;33534;51.028;13.716;2023-02-19T02:19:56;7.75;;;3.50;;
47772;SDS011;33534;51.028;13.716;2023-02-19T02:22:47;7.90;;;3.78;;
47772;SDS011;33534;51.028;13.716;2023-02-19T02:35:39;3.60;;;2.78;;
47772;SDS011;33534;51.028;13.716;2023-02-19T02:38:07;6.93;;;3.17;;
47772;SDS011;33534;51.028;13.716;2023-02-19T02:40:34;5.13;;;3.05;;
47772;SDS011;33534;51.028;13.716;2023-02-19T02:43:01;4.97;;;2.92;;
47772;SDS011;33534;51.028;13.716;2023-02-19T02:45:29;5.93;;;2.95;;
47772;SDS011;33534;51.028;13.716;2023-02-19T02:48:10;4.68;;;3.03;;
47772;SDS011;33534;51.028;13.716;2023-02-19T02:50:41;5.55;;;2.85;;
47772;SDS011;33534;51.028;13.716;2023-02-19T02:53:10;3.53;;;2.67;;
47772;SDS011;33534;51.028;13.716;2023-02-19T02:55:57;4.82;;;3.08;;
47772;SDS011;33534;51.028;13.716;2023-02-19T02:58:24;4.50;;;2.85;;
47772;SDS011;33534;51.028;13.716;2023-02-19T03:00:59;5.50;;;2.03;;
47772;SDS011;33534;51.028;13.716;2023-02-19T03:03:44;5.82;;;2.97;;
47772;SDS011;33534;51.028;13.716;2023-02-19T03:06:12;9.82;;;3.53;;
47772;SDS011;33534;51.028;13.716;2023-02-19T03:08:56;6.07;;;3.05;;
47772;SDS011;33534;51.028;13.716;2023-02-19T03:11:24;4.30;;;2.50;;
47772;SDS011;33534;51.028;13.716;2023-02-19T03:14:13;4.32;;;2.53;;
47772;SDS011;33534;51.028;13.716;2023-02-19T03:17:33;6.75;;;2.70;;
47772;SDS011;33534;51.028;13.716;2023-02-19T03:20:10;5.07;;;2.10;;
47772;SDS011;33534;51.028;13.716;2023-02-19T03:22:38;2.75;;;2.13;;
47772;SDS011;33534;51.028;13.716;2023-02-19T03:25:09;5.45;;;2.22;;
47772;SDS011;33534;51.028;13.716;2023-02-19T03:27:56;3.78;;;2.53;;
47772;SDS011;33534;51.028;13.716;2023-02-19T03:30:23;4.10;;;2.33;;
47772;SDS011;33534;51.028;13.716;2023-02-19T03:32:52;4.60;;;2.13;;
47772;SDS011;33534;51.028;13.716;2023-02-19T03:35:20;3.38;;;2.22;;
47772;SDS011;33534;51.028;13.716;2023-02-19T03:40:23;5.18;;;1.77;;
47772;SDS011;33534;51.028;13.716;2023-02-19T03:45:30;2.88;;;1.60;;
47772;SDS011;33534;51.028;13.716;2023-02-19T03:48:21;2.83;;;1.70;;
47772;SDS011;33534;51.028;13.716;2023-02-19T03:50:53;1.90;;;1.40;;
47772;SDS011;33534;51.028;13.716;2023-02-19T03:53:27;0.82;;;0.80;;
47772;SDS011;33534;51.028;13.716;2023-02-19T03:58:27;0.70;;;0.60;;
47772;SDS011;33534;51.028;13.716;2023-02-19T04:03:44;0.57;;;0.32;;
47772;SDS011;33534;51.028;13.716;2023-02-19T04:06:15;0.30;;;0.20;;
47772;SDS011;33534;51.028;13.716;2023-02-19T04:08:43;2.42;;;0.40;;
47772;SDS011;33534;51.028;13.716;2023-02-19T04:11:11;0.50;;;0.30;;
47772;SDS011;33534;51.028;13.716;2023-02-19T04:13:40;2.25;;;0.43;;
47772;SDS011;33534;51.028;13.716;2023-02-19T04:16:09;1.27;;;0.32;;
47772;SDS011;33534;51.028;13.716;2023-02-19T04:18:38;1.05;;;0.40;;
47772;SDS011;33534;51.028;13.716;2023-02-19T04:21:05;1.20;;;0.60;;
47772;SDS011;33534;51.028;13.716;2023-02-19T04:23:34;1.38;;;0.50;;
47772;SDS011;33534;51.028;13.716;2023-02-19T04:26:01;1.30;;;0.60;;
47772;SDS011;33534;51.028;13.716;2023-02-19T04:28:27;1.10;;;0.75;;
47772;SDS011;33534;51.028;13.716;2023-02-19T04:30:54;2.28;;;0.70;;
47772;SDS011;33534;51.028;13.716;2023-02-19T04:33:20;1.42;;;0.82;;
47772;SDS011;33534;51.028;13.716;2023-02-19T04:35:46;3.15;;;1.05;;
47772;SDS011;33534;51.028;13.716;2023-02-19T04:38:12;5.75;;;1.00;;
47772;SDS011;33534;51.028;13.716;2023-02-19T04:40:38;3.42;;;1.13;;
47772;SDS011;33534;51.028;13.716;2023-02-19T04:43:04;1.13;;;0.52;;
47772;SDS011;33534;51.028;13.716;2023-02-19T04:45:30;10.02;;;1.27;;
47772;SDS011;33534;51.028;13.716;2023-02-19T04:47:57;1.67;;;0.68;;
47772;SDS011;33534;51.028;13.716;2023-02-19T04:50:23;9.82;;;1.10;;
47772;SDS011;33534;51.028;13.716;2023-02-19T04:52:49;2.50;;;0.70;;
47772;SDS011;33534;51.028;13.716;2023-02-19T04:55:15;0.40;;;0.40;;
47772;SDS011;33534;51.028;13.716;2023-02-19T04:57:41;2.60;;;0.90;;
47772;SDS011;33534;51.028;13.716;2023-02-19T05:00:08;2.63;;;0.93;;
47772;SDS011;33534;51.028;13.716;2023-02-19T05:02:34;2.22;;;0.85;;
47772;SDS011;33534;51.028;13.716;2023-02-19T05:05:00;1.10;;;1.00;;
47772;SDS011;33534;51.028;13.716;2023-02-19T05:07:26;1.50;;;1.05;;
47772;SDS011;33534;51.028;13.716;2023-02-19T05:09:52;3.20;;;1.75;;
47772;SDS011;33534;51.028;13.716;2023-02-19T05:12:19;2.17;;;1.80;;
47772;SDS011;33534;51.028;13.716;2023-02-19T05:14:45;16.50;;;2.60;;
47772;SDS011;33534;51.028;13.716;2023-02-19T05:17:11;5.05;;;2.13;;
47772;SDS011;33534;51.028;13.716;2023-02-19T05:19:37;7.25;;;2.10;;
47772;SDS011;33534;51.028;13.716;2023-02-19T05:22:03;12.30;;;2.10;;
47772;SDS011;33534;51.028;13.716;2023-02-19T05:24:29;1.63;;;1.30;;
47772;SDS011;33534;51.028;13.716;2023-02-19T05:26:55;5.20;;;2.00;;
47772;SDS011;33534;51.028;13.716;2023-02-19T05:29:21;4.75;;;2.25;;
47772;SDS011;33534;51.028;13.716;2023-02-19T05:31:47;4.53;;;1.58;;
47772;SDS011;33534;51.028;13.716;2023-02-19T05:34:13;5.18;;;1.90;;
47772;SDS011;33534;51.028;13.716;2023-02-19T05:36:39;1.58;;;1.30;;
47772;SDS011;33534;51.028;13.716;2023-02-19T05:39:05;1.80;;;1.00;;
47772;SDS011;33534;51.028;13.716;2023-02-19T05:41:33;2.35;;;0.80;;
47772;SDS011;33534;51.028;13.716;2023-02-19T05:43:59;1.90;;;0.80;;
47772;SDS011;33534;51.028;13.716;2023-02-19T05:46:26;2.50;;;0.73;;
47772;SDS011;33534;51.028;13.716;2023-02-19T05:48:53;24.60;;;1.98;;
47772;SDS011;33534;51.028;13.716;2023-02-19T05:51:20;2.35;;;1.40;;
47772;SDS011;33534;51.028;13.716;2023-02-19T05:53:47;4.20;;;2.63;;
47772;SDS011;33534;51.028;13.716;2023-02-19T05:56:35;3.22;;;2.30;;
47772;SDS011;33534;51.028;13.716;2023-02-19T05:59:06;6.50;;;2.45;;
47772;SDS011;33534;51.028;13.716;2023-02-19T06:01:33;3.88;;;2.30;;
47772;SDS011;33534;51.028;13.716;2023-02-19T06:04:00;4.95;;;2.40;;
47772;SDS011;33534;51.028;13.716;2023-02-19T06:06:26;2.65;;;2.30;;
47772;SDS011;33534;51.028;13.716;2023-02-19T06:08:52;2.58;;;1.92;;
47772;SDS011;33534;51.028;13.716;2023-02-19T06:11:18;2.90;;;1.40;;
47772;SDS011;33534;51.028;13.716;2023-02-19T06:13:45;1.65;;;1.20;;
47772;SDS011;33534;51.028;13.716;2023-02-19T06:16:11;1.70;;;1.48;;
47772;SDS011;33534;51.028;13.716;2023-02-19T06:18:37;1.48;;;1.25;;
47772;SDS011;33534;51.028;13.716;2023-02-19T06:21:07;0.93;;;0.80;;
47772;SDS011;33534;51.028;13.716;2023-02-19T06:23:33;2.28;;;1.08;;
47772;SDS011;33534;51.028;13.716;2023-02-19T06:28:31;0.52;;;0.52;;
47772;SDS011;33534;51.028;13.716;2023-02-19T06:30:57;0.50;;;0.50;;
47772;SDS011;33534;51.028;13.716;2023-02-19T06:33:25;0.63;;;0.47;;
47772;SDS011;33534;51.028;13.716;2023-02-19T06:35:51;0.60;;;0.30;;
47772;SDS011;33534;51.028;13.716;2023-02-19T06:38:17;0.32;;;0.30;;
47772;SDS011;33534;51.028;13.716;2023-02-19T06:40:43;0.90;;;0.45;;
47772;SDS011;33534;51.028;13.716;2023-02-19T06:43:10;0.73;;;0.60;;
47772;SDS011;33534;51.028;13.716;2023-02-19T06:45:36;0.57;;;0.40;;
47772;SDS011;33534;51.028;13.716;2023-02-19T06:48:02;0.50;;;0.50;;
47772;SDS011;33534;51.028;13.716;2023-02-19T06:50:29;1.40;;;0.40;;
47772;SDS011;33534;51.028;13.716;2023-02-19T06:52:55;0.60;;;0.57;;
47772;SDS011;33534;51.028;13.716;2023-02-19T06:55:21;2.42;;;0.60;;
47772;SDS011;33534;51.028;13.716;2023-02-19T06:57:47;1.35;;;0.82;;
47772;SDS011;33534;51.028;13.716;2023-02-19T07:00:13;0.98;;;0.82;;
47772;SDS011;33534;51.028;13.716;2023-02-19T07:02:39;1.88;;;0.80;;
47772;SDS011;33534;51.028;13.716;2023-02-19T07:05:05;1.73;;;0.80;;
47772;SDS011;33534;51.028;13.716;2023-02-19T07:07:31;1.17;;;1.02;;
47772;SDS011;33534;51.028;13.716;2023-02-19T07:09:57;1.73;;;0.90;;
47772;SDS011;33534;51.028;13.716;2023-02-19T07:12:23;1.05;;;0.70;;
47772;SDS011;33534;51.028;13.716;2023-02-19T07:14:49;0.80;;;0.80;;
47772;SDS011;33534;51.028;13.716;2023-02-19T07:17:15;2.20;;;1.35;;
47772;SDS011;33534;51.028;13.716;2023-02-19T07:19:41;3.53;;;1.38;;
47772;SDS011;33534;51.028;13.716;2023-02-19T07:22:07;1.55;;;1.05;;
47772;SDS011;33534;51.028;13.716;2023-02-19T07:24:33;1.75;;;1.27;;
47772;SDS011;33534;51.028;13.716;2023-02-19T07:26:59;4.90;;;1.52;;
47772;SDS011;33534;51.028;13.716;2023-02-19T07:29:25;2.38;;;1.30;;
47772;SDS011;33534;51.028;13.716;2023-02-19T07:31:51;6.30;;;1.80;;
47772;SDS011;33534;51.028;13.716;2023-02-19T07:34:17;7.50;;;1.58;;
47772;SDS011;33534;51.028;13.716;2023-02-19T07:36:43;1.85;;;1.40;;
47772;SDS011;33534;51.028;13.716;2023-02-19T07:39:10;1.27;;;1.17;;
47772;SDS011;33534;51.028;13.716;2023-02-19T07:41:37;3.05;;;2.30;;
47772;SDS011;33534;51.028;13.716;2023-02-19T07:44:03;1.90;;;1.80;;
47772;SDS011;33534;51.028;13.716;2023-02-19T07:46:29;1.70;;;1.20;;
47772;SDS011;33534;51.028;13.716;2023-02-19T07:48:56;1.52;;;1.02;;
47772;SDS011;33534;51.028;13.716;2023-02-19T07:51:22;1.98;;;0.52;;
47772;SDS011;33534;51.028;13.716;2023-02-19T07:53:48;0.57;;;0.55;;
47772;SDS011;33534;51.028;13.716;2023-02-19T07:56:14;0.60;;;0.60;;
47772;SDS011;33534;51.028;13.716;2023-02-19T07:58:40;0.80;;;0.80;;
47772;SDS011;33534;51.028;13.716;2023-02-19T08:01:12;1.83;;;0.85;;
47772;SDS011;33534;51.028;13.716;2023-02-19T08:03:38;1.25;;;1.00;;
47772;SDS011;33534;51.028;13.716;2023-02-19T08:06:04;2.20;;;1.33;;
47772;SDS011;33534;51.028;13.716;2023-02-19T08:08:31;2.92;;;1.40;;
47772;SDS011;33534;51.028;13.716;2023-02-19T08:11:00;1.38;;;0.95;;
47772;SDS011;33534;51.028;13.716;2023-02-19T08:13:46;0.98;;;0.98;;
47772;SDS011;33534;51.028;13.716;2023-02-19T08:16:13;1.08;;;1.05;;
47772;SDS011;33534;51.028;13.716;2023-02-19T08:18:43;1.30;;;1.20;;
47772;SDS011;33534;51.028;13.716;2023-02-19T08:21:09;2.20;;;2.00;;
47772;SDS011;33534;51.028;13.716;2023-02-19T08:23:36;1.92;;;1.50;;
47772;SDS011;33534;51.028;13.716;2023-02-19T08:26:02;2.13;;;1.15;;
47772;SDS011;33534;51.028;13.716;2023-02-19T08:28:28;1.55;;;1.23;;
47772;SDS011;33534;51.028;13.716;2023-02-19T08:30:57;1.38;;;1.27;;
47772;SDS011;33534;51.028;13.716;2023-02-19T08:33:24;1.30;;;1.20;;
47772;SDS011;33534;51.028;13.716;2023-02-19T08:35:50;1.38;;;1.20;;
47772;SDS011;33534;51.028;13.716;2023-02-19T08:38:18;1.80;;;1.08;;
47772;SDS011;33534;51.028;13.716;2023-02-19T08:40:44;1.25;;;1.00;;
47772;SDS011;33534;51.028;13.716;2023-02-19T08:43:11;2.00;;;1.80;;
47772;SDS011;33534;51.028;13.716;2023-02-19T08:45:38;2.88;;;2.38;;
47772;SDS011;33534;51.028;13.716;2023-02-19T08:48:04;4.85;;;2.60;;
47772;SDS011;33534;51.028;13.716;2023-02-19T08:50:30;2.13;;;1.98;;
47772;SDS011;33534;51.028;13.716;2023-02-19T08:53:00;3.10;;;1.85;;
47772;SDS011;33534;51.028;13.716;2023-02-19T08:55:26;3.03;;;1.63;;
47772;SDS011;33534;51.028;13.716;2023-02-19T08:57:52;2.40;;;1.63;;
47772;SDS011;33534;51.028;13.716;2023-02-19T09:00:18;2.63;;;2.05;;
47772;SDS011;33534;51.028;13.716;2023-02-19T09:02:45;2.80;;;1.95;;
47772;SDS011;33534;51.028;13.716;2023-02-19T09:05:11;4.55;;;2.72;;
47772;SDS011;33534;51.028;13.716;2023-02-19T09:07:38;3.72;;;2.67;;
47772;SDS011;33534;51.028;13.716;2023-02-19T09:10:04;4.10;;;3.00;;
47772;SDS011;33534;51.028;13.716;2023-02-19T09:12:30;3.40;;;2.97;;
47772;SDS011;33534;51.028;13.716;2023-02-19T09:14:57;3.50;;;3.20;;
47772;SDS011;33534;51.028;13.716;2023-02-19T09:17:23;4.53;;;4.00;;
47772;SDS011;33534;51.028;13.716;2023-02-19T09:19:49;5.88;;;4.47;;
47772;SDS011;33534;51.028;13.716;2023-02-19T09:22:15;6.03;;;4.97;;
47772;SDS011;33534;51.028;13.716;2023-02-19T09:24:41;5.28;;;3.92;;
47772;SDS011;33534;51.028;13.716;2023-02-19T09:27:07;3.47;;;2.92;;
47772;SDS011;33534;51.028;13.716;2023-02-19T09:29:34;3.83;;;2.85;;
47772;SDS011;33534;51.028;13.716;2023-02-19T09:32:00;4.57;;;2.63;;
47772;SDS011;33534;51.028;13.716;2023-02-19T09:34:27;2.50;;;2.25;;
47772;SDS011;33534;51.028;13.716;2023-02-19T09:36:53;3.55;;;2.50;;
47772;SDS011;33534;51.028;13.716;2023-02-19T09:39:19;3.05;;;2.40;;
47772;SDS011;33534;51.028;13.716;2023-02-19T09:41:47;4.30;;;2.63;;
47772;SDS011;33534;51.028;13.716;2023-02-19T09:44:16;2.65;;;2.00;;
47772;SDS011;33534;51.028;13.716;2023-02-19T09:46:46;3.03;;;1.48;;
47772;SDS011;33534;51.028;13.716;2023-02-19T09:51:39;3.30;;;1.42;;
47772;SDS011;33534;51.028;13.716;2023-02-19T09:54:06;5.13;;;2.17;;
47772;SDS011;33534;51.028;13.716;2023-02-19T09:56:35;3.65;;;1.85;;
47772;SDS011;33534;51.028;13.716;2023-02-19T09:59:01;7.20;;;2.50;;
47772;SDS011;33534;51.028;13.716;2023-02-19T10:01:29;8.15;;;2.05;;
47772;SDS011;33534;51.028;13.716;2023-02-19T10:03:56;5.70;;;1.73;;
47772;SDS011;33534;51.028;13.716;2023-02-19T10:06:23;5.88;;;1.17;;
47772;SDS011;33534;51.028;13.716;2023-02-19T10:08:50;2.35;;;1.60;;
47772;SDS011;33534;51.028;13.716;2023-02-19T10:11:17;3.40;;;1.48;;
47772;SDS011;33534;51.028;13.716;2023-02-19T10:13:48;3.70;;;1.20;;
47772;SDS011;33534;51.028;13.716;2023-02-19T10:16:15;2.70;;;1.03;;
47772;SDS011;33534;51.028;13.716;2023-02-19T10:18:43;5.55;;;1.10;;
47772;SDS011;33534;51.028;13.716;2023-02-19T10:21:10;3.10;;;0.98;;
47772;SDS011;33534;51.028;13.716;2023-02-19T10:23:37;2.40;;;0.93;;
47772;SDS011;33534;51.028;13.716;2023-02-19T10:26:04;2.42;;;0.77;;
47772;SDS011;33534;51.028;13.716;2023-02-19T10:28:31;3.10;;;1.60;;
47772;SDS011;33534;51.028;13.716;2023-02-19T10:30:59;2.10;;;1.23;;
47772;SDS011;33534;51.028;13.716;2023-02-19T10:33:25;2.40;;;1.02;;
47772;SDS011;33534;51.028;13.716;2023-02-19T10:38:21;3.50;;;1.10;;
47772;SDS011;33534;51.028;13.716;2023-02-19T10:40:50;3.63;;;1.58;;
47772;SDS011;33534;51.028;13.716;2023-02-19T10:43:26;3.35;;;1.10;;
47772;SDS011;33534;51.028;13.716;2023-02-19T10:46:01;2.72;;;1.00;;
47772;SDS011;33534;51.028;13.716;2023-02-19T10:48:29;1.70;;;1.20;;
47772;SDS011;33534;51.028;13.716;2023-02-19T10:50:58;2.58;;;1.00;;
47772;SDS011;33534;51.028;13.716;2023-02-19T10:53:45;1.42;;;0.75;;
47772;SDS011;33534;51.028;13.716;2023-02-19T10:58:38;1.52;;;1.10;;
47772;SDS011;33534;51.028;13.716;2023-02-19T11:01:10;1.73;;;1.17;;
47772;SDS011;33534;51.028;13.716;2023-02-19T11:03:37;3.58;;;1.40;;
47772;SDS011;33534;51.028;13.716;2023-02-19T11:06:03;2.22;;;1.02;;
47772;SDS011;33534;51.028;13.716;2023-02-19T11:08:48;5.03;;;1.63;;
47772;SDS011;33534;51.028;13.716;2023-02-19T11:11:28;2.10;;;1.20;;
47772;SDS011;33534;51.028;13.716;2023-02-19T11:13:56;4.97;;;1.80;;
47772;SDS011;33534;51.028;13.716;2023-02-19T11:16:23;1.17;;;0.80;;
47772;SDS011;33534;51.028;13.716;2023-02-19T11:19:01;1.75;;;0.90;;
47772;SDS011;33534;51.028;13.716;2023-02-19T11:21:28;3.35;;;0.95;;
47772;SDS011;33534;51.028;13.716;2023-02-19T11:23:58;1.63;;;0.93;;
47772;SDS011;33534;51.028;13.716;2023-02-19T11:26:26;1.58;;;0.75;;
47772;SDS011;33534;51.028;13.716;2023-02-19T11:28:56;3.30;;;1.10;;
47772;SDS011;33534;51.028;13.716;2023-02-19T11:33:53;1.88;;;0.82;;
47772;SDS011;33534;51.028;13.716;2023-02-19T11:36:27;2.58;;;0.88;;
47772;SDS011;33534;51.028;13.716;2023-02-19T11:38:54;2.38;;;0.98;;
47772;SDS011;33534;51.028;13.716;2023-02-19T11:43:49;2.50;;;0.95;;
47772;SDS011;33534;51.028;13.716;2023-02-19T11:46:29;4.25;;;0.90;;
47772;SDS011;33534;51.028;13.716;2023-02-19T11:51:38;11.43;;;1.42;;
47772;SDS011;33534;51.028;13.716;2023-02-19T11:56:42;1.58;;;1.00;;
47772;SDS011;33534;51.028;13.716;2023-02-19T12:22:32;1.92;;;1.10;;
47772;SDS011;33534;51.028;13.716;2023-02-19T12:25:09;3.33;;;1.10;;
47772;SDS011;33534;51.028;13.716;2023-02-19T12:32:54;2.53;;;1.10;;
47772;SDS011;33534;51.028;13.716;2023-02-19T12:43:22;4.00;;;1.23;;
47772;SDS011;33534;51.028;13.716;2023-02-19T12:48:28;0.82;;;0.82;;
47772;SDS011;33534;51.028;13.716;2023-02-19T12:50:57;3.47;;;1.23;;
47772;SDS011;33534;51.028;13.716;2023-02-19T12:55:53;3.40;;;1.00;;
47772;SDS011;33534;51.028;13.716;2023-02-19T12:58:26;2.30;;;0.90;;
47772;SDS011;33534;51.028;13.716;2023-02-19T13:00:53;3.47;;;0.98;;
47772;SDS011;33534;51.028;13.716;2023-02-19T13:03:39;2.33;;;1.48;;
47772;SDS011;33534;51.028;13.716;2023-02-19T13:06:09;5.20;;;1.00;;
47772;SDS011;33534;51.028;13.716;2023-02-19T13:11:20;3.35;;;1.00;;
47772;SDS011;33534;51.028;13.716;2023-02-19T13:16:18;10.90;;;1.27;;
47772;SDS011;33534;51.028;13.716;2023-02-19T13:21:13;3.00;;;0.95;;
47772;SDS011;33534;51.028;13.716;2023-02-19T13:24:01;4.10;;;1.25;;
47772;SDS011;33534;51.028;13.716;2023-02-19T13:34:12;2.63;;;0.55;;
47772;SDS011;33534;51.028;13.716;2023-02-19T13:36:39;1.55;;;0.73;;
47772;SDS011;33534;51.028;13.716;2023-02-19T13:39:05;4.60;;;0.85;;
47772;SDS011;33534;51.028;13.716;2023-02-19T13:41:39;4.00;;;0.98;;
47772;SDS011;33534;51.028;13.716;2023-02-19T13:44:06;7.25;;;1.17;;
47772;SDS011;33534;51.028;13.716;2023-02-19T13:46:39;4.30;;;0.95;;
47772;SDS011;33534;51.028;13.716;2023-02-19T13:51:50;4.85;;;0.90;;
47772;SDS011;33534;51.028;13.716;2023-02-19T13:54:24;1.48;;;0.68;;
47772;SDS011;33534;51.028;13.716;2023-02-19T13:59:36;2.42;;;0.70;;
47772;SDS011;33534;51.028;13.716;2023-02-19T14:14:54;2.28;;;0.93;;
47772;SDS011;33534;51.028;13.716;2023-02-19T14:17:29;4.95;;;0.75;;
47772;SDS011;33534;51.028;13.716;2023-02-19T14:30:30;2.30;;;0.80;;
47772;SDS011;33534;51.028;13.716;2023-02-19T14:32:57;2.33;;;0.65;;
47772;SDS011;33534;51.028;13.716;2023-02-19T14:35:26;4.40;;;1.17;;
47772;SDS011;33534;51.028;13.716;2023-02-19T14:37:54;3.40;;;1.30;;
47772;SDS011;33534;51.028;13.716;2023-02-19T14:40:22;2.85;;;0.98;;
47772;SDS011;33534;51.028;13.716;2023-02-19T14:42:51;3.42;;;1.58;;
47772;SDS011;33534;51.028;13.716;2023-02-19T14:45:18;4.60;;;1.55;;
47772;SDS011;33534;51.028;13.716;2023-02-19T14:47:45;3.28;;;1.23;;
47772;SDS011;33534;51.028;13.716;2023-02-19T14:50:15;3.38;;;1.17;;
47772;SDS011;33534;51.028;13.716;2023-02-19T14:52:43;3.92;;;1.20;;
47772;SDS011;33534;51.028;13.716;2023-02-19T14:57:46;3.63;;;1.42;;
47772;SDS011;33534;51.028;13.716;2023-02-19T15:00:20;3.97;;;1.10;;
47772;SDS011;33534;51.028;13.716;2023-02-19T15:02:48;3.35;;;1.00;;
47772;SDS011;33534;51.028;13.716;2023-02-19T15:05:15;2.88;;;0.95;;
47772;SDS011;33534;51.028;13.716;2023-02-19T15:07:41;4.95;;;1.45;;
47772;SDS011;33534;51.028;13.716;2023-02-19T15:10:07;9.30;;;1.83;;
47772;SDS011;33534;51.028;13.716;2023-02-19T15:12:35;6.00;;;1.83;;
47772;SDS011;33534;51.028;13.716;2023-02-19T15:15:04;4.65;;;1.65;;
47772;SDS011;33534;51.028;13.716;2023-02-19T15:17:31;10.73;;;2.00;;
47772;SDS011;33534;51.028;13.716;2023-02-19T15:19:59;3.20;;;1.35;;
47772;SDS011;33534;51.028;13.716;2023-02-19T15:22:27;5.18;;;1.42;;
47772;SDS011;33534;51.028;13.716;2023-02-19T15:24:56;6.45;;;1.70;;
47772;SDS011;33534;51.028;13.716;2023-02-19T15:27:24;4.63;;;1.50;;
47772;SDS011;33534;51.028;13.716;2023-02-19T15:29:51;3.17;;;1.55;;
47772;SDS011;33534;51.028;13.716;2023-02-19T15:32:21;2.45;;;1.42;;
47772;SDS011;33534;51.028;13.716;2023-02-19T15:37:19;4.60;;;1.80;;
47772;SDS011;33534;51.028;13.716;2023-02-19T15:39:46;5.80;;;1.50;;
47772;SDS011;33534;51.028;13.716;2023-02-19T15:42:16;5.57;;;1.58;;
47772;SDS011;33534;51.028;13.716;2023-02-19T15:47:58;3.03;;;1.45;;
47772;SDS011;33534;51.028;13.716;2023-02-19T15:57:46;5.68;;;2.15;;
47772;SDS011;33534;51.028;13.716;2023-02-19T16:00:27;3.45;;;1.23;;
47772;SDS011;33534;51.028;13.716;2023-02-19T16:02:55;4.93;;;1.08;;
47772;SDS011;33534;51.028;13.716;2023-02-19T16:05:23;7.07;;;1.40;;
47772;SDS011;33534;51.028;13.716;2023-02-19T16:10:34;4.10;;;1.50;;
47772;SDS011;33534;51.028;13.716;2023-02-19T16:13:04;3.13;;;1.73;;
47772;SDS011;33534;51.028;13.716;2023-02-19T16:15:33;5.38;;;1.98;;
47772;SDS011;33534;51.028;13.716;2023-02-19T16:17:59;5.93;;;2.50;;
47772;SDS011;33534;51.028;13.716;2023-02-19T16:20:30;8.93;;;2.90;;
47772;SDS011;33534;51.028;13.716;2023-02-19T16:23:04;4.75;;;2.25;;
47772;SDS011;33534;51.028;13.716;2023-02-19T16:25:41;5.13;;;2.20;;
47772;SDS011;33534;51.028;13.716;2023-02-19T16:28:24;7.68;;;2.78;;
47772;SDS011;33534;51.028;13.716;2023-02-19T16:41:29;7.05;;;2.25;;
47772;SDS011;33534;51.028;13.716;2023-02-19T16:43:55;5.72;;;2.45;;
47772;SDS011;33534;51.028;13.716;2023-02-19T16:46:21;6.47;;;2.65;;
47772;SDS011;33534;51.028;13.716;2023-02-19T16:48:47;4.07;;;2.25;;
47772;SDS011;33534;51.028;13.716;2023-02-19T16:51:20;4.80;;;2.33;;
47772;SDS011;33534;51.028;13.716;2023-02-19T16:54:06;5.43;;;2.08;;
47772;SDS011;33534;51.028;13.716;2023-02-19T16:56:34;3.88;;;2.25;;
47772;SDS011;33534;51.028;13.716;2023-02-19T16:59:00;5.75;;;2.22;;
47772;SDS011;33534;51.028;13.716;2023-02-19T17:01:32;8.80;;;3.20;;
47772;SDS011;33534;51.028;13.716;2023-02-19T17:04:09;7.13;;;2.75;;
47772;SDS011;33534;51.028;13.716;2023-02-19T17:06:39;7.78;;;3.05;;
47772;SDS011;33534;51.028;13.716;2023-02-19T17:09:06;4.63;;;2.22;;
47772;SDS011;33534;51.028;13.716;2023-02-19T17:11:32;6.47;;;3.08;;
47772;SDS011;33534;51.028;13.716;2023-02-19T17:13:58;8.02;;;3.20;;
47772;SDS011;33534;51.028;13.716;2023-02-19T17:16:25;7.47;;;3.50;;
47772;SDS011;33534;51.028;13.716;2023-02-19T17:18:52;9.75;;;2.92;;
47772;SDS011;33534;51.028;13.716;2023-02-19T17:24:44;5.03;;;3.13;;
47772;SDS011;33534;51.028;13.716;2023-02-19T17:27:13;4.95;;;3.03;;
47772;SDS011;33534;51.028;13.716;2023-02-19T17:29:42;6.30;;;3.00;;
47772;SDS011;33534;51.028;13.716;2023-02-19T17:32:08;9.88;;;2.55;;
47772;SDS011;33534;51.028;13.716;2023-02-19T17:34:40;8.88;;;3.30;;